sensor_id;sensor_type;location;lat;lon;timestamp;temperature;humidity
27759;DHT22;15148;48.972;12.794;2023-08-31T00:04:47;13.40;99.90
27759;DHT22;15148;48.972;12.794;2023-08-31T00:09:49;13.40;99.90
27759;DHT22;15148;48.972;12.794;2023-08-31T00:14:52;13.40;99.90
27759;DHT22;15148;48.972;12.794;2023-08-31T00:19:54;13.40;99.90
27759;DHT22;15148;48.972;12.794;2023-08-31T00:24:56;13.40;99.90
27759;DHT22;15148;48.972;12.794;2023-08-31T00:29:59;13.40;99.90
27759;DHT22;15148;48.972;12.794;2023-08-31T00:35:01;13.40;99.90
27759;DHT22;15148;48.972;12.794;2023-08-31T00:40:04;13.50;99.90
27759;DHT22;15148;48.972;12.794;2023-08-31T00:45:08;13.50;99.90
27759;DHT22;15148;48.972;12.794;2023-08-31T00:50:10;13.50;99.90
27759;DHT22;15148;48.972;12.794;2023-08-31T00:55:13;13.50;99.90
27759;DHT22;15148;48.972;12.794;2023-08-31T01:00:15;13.60;99.90
27759;DHT22;15148;48.972;12.794;2023-08-31T01:05:45;13.60;99.90
27759;DHT22;15148;48.972;12.794;2023-08-31T01:16:33;13.60;99.90
27759;DHT22;15148;48.972;12.794;2023-08-31T01:21:38;13.50;99.90
27759;DHT22;15148;48.972;12.794;2023-08-31T01:26:42;13.50;99.90
27759;DHT22;15148;48.972;12.794;2023-08-31T01:31:46;13.40;99.90
27759;DHT22;15148;48.972;12.794;2023-08-31T01:36:55;13.40;99.90
27759;DHT22;15148;48.972;12.794;2023-08-31T01:42:02;13.40;99.90
27759;DHT22;15148;48.972;12.794;2023-08-31T01:47:06;13.30;99.90
27759;DHT22;15148;48.972;12.794;2023-08-31T01:52:09;13.30;99.90
27759;DHT22;15148;48.972;12.794;2023-08-31T01:57:11;13.30;99.90
27759;DHT22;15148;48.972;12.794;2023-08-31T02:02:33;13.40;99.90
27759;DHT22;15148;48.972;12.794;2023-08-31T02:07:36;13.30;99.90
27759;DHT22;15148;48.972;12.794;2023-08-31T02:12:38;13.30;99.90
27759;DHT22;15148;48.972;12.794;2023-08-31T02:17:40;13.40;99.90
27759;DHT22;15148;48.972;12.794;2023-08-31T02:22:42;13.40;99.90
27759;DHT22;15148;48.972;12.794;2023-08-31T02:27:44;13.40;99.90
27759;DHT22;15148;48.972;12.794;2023-08-31T02:32:46;13.50;99.90
27759;DHT22;15148;48.972;12.794;2023-08-31T02:37:49;13.50;99.90
27759;DHT22;15148;48.972;12.794;2023-08-31T02:42:52;13.50;99.90
27759;DHT22;15148;48.972;12.794;2023-08-31T02:47:55;13.50;99.90
27759;DHT22;15148;48.972;12.794;2023-08-31T02:52:58;13.60;99.90
27759;DHT22;15148;48.972;12.794;2023-08-31T02:58:02;13.60;99.90
27759;DHT22;15148;48.972;12.794;2023-08-31T03:03:06;13.60;99.90
27759;DHT22;15148;48.972;12.794;2023-08-31T03:08:08;13.70;99.90
27759;DHT22;15148;48.972;12.794;2023-08-31T03:13:10;13.70;99.90
27759;DHT22;15148;48.972;12.794;2023-08-31T03:18:14;13.70;99.90
27759;DHT22;15148;48.972;12.794;2023-08-31T03:23:16;13.70;99.90
27759;DHT22;15148;48.972;12.794;2023-08-31T03:28:19;13.70;99.90
27759;DHT22;15148;48.972;12.794;2023-08-31T03:33:21;13.70;99.90
27759;DHT22;15148;48.972;12.794;2023-08-31T03:38:23;13.70;99.90
27759;DHT22;15148;48.972;12.794;2023-08-31T03:43:25;13.70;99.90
27759;DHT22;15148;48.972;12.794;2023-08-31T03:52:15;13.70;99.90
27759;DHT22;15148;48.972;12.794;2023-08-31T03:57:17;13.60;99.90
27759;DHT22;15148;48.972;12.794;2023-08-31T04:02:20;13.60;99.90
27759;DHT22;15148;48.972;12.794;2023-08-31T04:07:22;13.60;99.90
27759;DHT22;15148;48.972;12.794;2023-08-31T04:12:24;13.50;99.90
27759;DHT22;15148;48.972;12.794;2023-08-31T04:17:26;13.40;99.90
27759;DHT22;15148;48.972;12.794;2023-08-31T04:22:28;13.40;99.90
27759;DHT22;15148;48.972;12.794;2023-08-31T04:27:30;13.40;99.90
27759;DHT22;15148;48.972;12.794;2023-08-31T04:32:33;13.50;99.90
27759;DHT22;15148;48.972;12.794;2023-08-31T04:37:34;13.50;99.90
27759;DHT22;15148;48.972;12.794;2023-08-31T04:42:36;13.40;99.90
27759;DHT22;15148;48.972;12.794;2023-08-31T04:47:38;13.40;99.90
27759;DHT22;15148;48.972;12.794;2023-08-31T04:52:40;13.40;99.90
27759;DHT22;15148;48.972;12.794;2023-08-31T04:57:42;13.50;99.90
27759;DHT22;15148;48.972;12.794;2023-08-31T05:02:44;13.50;99.90
27759;DHT22;15148;48.972;12.794;2023-08-31T05:07:46;13.50;99.90
27759;DHT22;15148;48.972;12.794;2023-08-31T05:12:48;13.40;99.90
27759;DHT22;15148;48.972;12.794;2023-08-31T05:17:50;13.50;99.90
27759;DHT22;15148;48.972;12.794;2023-08-31T05:22:52;13.50;99.90
27759;DHT22;15148;48.972;12.794;2023-08-31T05:27:54;13.60;99.90
27759;DHT22;15148;48.972;12.794;2023-08-31T05:32:57;13.60;99.90
27759;DHT22;15148;48.972;12.794;2023-08-31T05:38:00;13.60;99.90
27759;DHT22;15148;48.972;12.794;2023-08-31T05:43:02;13.60;99.90
27759;DHT22;15148;48.972;12.794;2023-08-31T05:48:04;13.60;99.90
27759;DHT22;15148;48.972;12.794;2023-08-31T05:53:07;13.60;99.90
27759;DHT22;15148;48.972;12.794;2023-08-31T05:58:10;13.60;99.90
27759;DHT22;15148;48.972;12.794;2023-08-31T06:03:12;13.60;99.90
27759;DHT22;15148;48.972;12.794;2023-08-31T06:08:14;13.70;99.90
27759;DHT22;15148;48.972;12.794;2023-08-31T06:13:16;13.70;99.90
27759;DHT22;15148;48.972;12.794;2023-08-31T06:18:18;13.70;99.90
27759;DHT22;15148;48.972;12.794;2023-08-31T06:23:20;13.70;99.90
27759;DHT22;15148;48.972;12.794;2023-08-31T06:28:22;13.70;99.90
27759;DHT22;15148;48.972;12.794;2023-08-31T06:33:24;13.80;99.90
27759;DHT22;15148;48.972;12.794;2023-08-31T06:38:26;13.80;99.90
27759;DHT22;15148;48.972;12.794;2023-08-31T06:43:28;13.90;99.90
27759;DHT22;15148;48.972;12.794;2023-08-31T06:48:31;14.00;99.90
27759;DHT22;15148;48.972;12.794;2023-08-31T06:53:32;14.10;99.90
27759;DHT22;15148;48.972;12.794;2023-08-31T06:58:35;14.10;99.90
27759;DHT22;15148;48.972;12.794;2023-08-31T07:03:37;14.40;99.90
27759;DHT22;15148;48.972;12.794;2023-08-31T07:08:39;14.60;99.90
27759;DHT22;15148;48.972;12.794;2023-08-31T07:13:42;14.60;99.90
27759;DHT22;15148;48.972;12.794;2023-08-31T07:18:44;14.50;99.90
27759;DHT22;15148;48.972;12.794;2023-08-31T07:23:46;14.50;99.90
27759;DHT22;15148;48.972;12.794;2023-08-31T07:28:49;14.40;99.90
27759;DHT22;15148;48.972;12.794;2023-08-31T07:33:51;14.40;99.90
27759;DHT22;15148;48.972;12.794;2023-08-31T07:38:53;14.60;99.90
27759;DHT22;15148;48.972;12.794;2023-08-31T07:43:55;14.70;99.90
27759;DHT22;15148;48.972;12.794;2023-08-31T07:49:05;14.80;99.90
27759;DHT22;15148;48.972;12.794;2023-08-31T07:54:08;15.10;99.90
27759;DHT22;15148;48.972;12.794;2023-08-31T07:59:10;15.60;99.90
27759;DHT22;15148;48.972;12.794;2023-08-31T08:04:12;16.10;99.90
27759;DHT22;15148;48.972;12.794;2023-08-31T08:09:14;16.60;99.90
27759;DHT22;15148;48.972;12.794;2023-08-31T08:14:17;16.50;99.90
27759;DHT22;15148;48.972;12.794;2023-08-31T08:19:23;16.20;99.90
27759;DHT22;15148;48.972;12.794;2023-08-31T08:24:25;16.20;99.90
27759;DHT22;15148;48.972;12.794;2023-08-31T08:29:27;16.40;99.90
27759;DHT22;15148;48.972;12.794;2023-08-31T08:34:28;16.20;99.90
27759;DHT22;15148;48.972;12.794;2023-08-31T08:39:31;15.90;99.90
27759;DHT22;15148;48.972;12.794;2023-08-31T08:44:33;15.70;99.90
27759;DHT22;15148;48.972;12.794;2023-08-31T08:49:37;15.40;99.90
27759;DHT22;15148;48.972;12.794;2023-08-31T08:54:40;15.30;99.90
27759;DHT22;15148;48.972;12.794;2023-08-31T08:59:42;15.10;99.90
27759;DHT22;15148;48.972;12.794;2023-08-31T09:04:44;15.10;99.90
27759;DHT22;15148;48.972;12.794;2023-08-31T09:09:50;15.10;99.90
27759;DHT22;15148;48.972;12.794;2023-08-31T09:15:00;15.20;99.90
27759;DHT22;15148;48.972;12.794;2023-08-31T09:20:03;15.40;99.90
27759;DHT22;15148;48.972;12.794;2023-08-31T09:25:08;15.60;99.90
27759;DHT22;15148;48.972;12.794;2023-08-31T09:30:11;15.60;99.90
27759;DHT22;15148;48.972;12.794;2023-08-31T09:35:13;15.70;99.90
27759;DHT22;15148;48.972;12.794;2023-08-31T09:40:22;15.70;99.90
27759;DHT22;15148;48.972;12.794;2023-08-31T09:45:29;15.50;99.90
27759;DHT22;15148;48.972;12.794;2023-08-31T09:50:47;15.40;99.90
27759;DHT22;15148;48.972;12.794;2023-08-31T09:55:51;15.20;99.90
27759;DHT22;15148;48.972;12.794;2023-08-31T10:00:53;15.10;99.90
27759;DHT22;15148;48.972;12.794;2023-08-31T10:05:56;15.10;99.90
27759;DHT22;15148;48.972;12.794;2023-08-31T10:10:59;15.10;99.90
27759;DHT22;15148;48.972;12.794;2023-08-31T10:16:05;15.10;99.90
27759;DHT22;15148;48.972;12.794;2023-08-31T10:21:08;15.30;99.90
27759;DHT22;15148;48.972;12.794;2023-08-31T10:26:10;15.40;99.90
27759;DHT22;15148;48.972;12.794;2023-08-31T10:31:17;15.50;99.90
27759;DHT22;15148;48.972;12.794;2023-08-31T10:36:20;15.70;99.90
27759;DHT22;15148;48.972;12.794;2023-08-31T10:41:22;15.80;99.90
27759;DHT22;15148;48.972;12.794;2023-08-31T10:46:43;15.80;99.90
27759;DHT22;15148;48.972;12.794;2023-08-31T10:51:50;15.90;99.90
27759;DHT22;15148;48.972;12.794;2023-08-31T11:01:57;16.30;99.90
27759;DHT22;15148;48.972;12.794;2023-08-31T11:12:15;17.20;99.90
27759;DHT22;15148;48.972;12.794;2023-08-31T11:17:17;17.30;99.90
27759;DHT22;15148;48.972;12.794;2023-08-31T11:22:18;17.30;99.90
27759;DHT22;15148;48.972;12.794;2023-08-31T11:27:21;17.30;99.90
27759;DHT22;15148;48.972;12.794;2023-08-31T11:32:24;17.40;99.90
27759;DHT22;15148;48.972;12.794;2023-08-31T11:37:26;17.30;99.90
27759;DHT22;15148;48.972;12.794;2023-08-31T11:42:28;17.30;99.90
27759;DHT22;15148;48.972;12.794;2023-08-31T11:47:31;17.30;99.90
27759;DHT22;15148;48.972;12.794;2023-08-31T11:52:33;17.20;99.90
27759;DHT22;15148;48.972;12.794;2023-08-31T11:57:36;17.10;99.90
27759;DHT22;15148;48.972;12.794;2023-08-31T12:02:37;17.00;99.90
27759;DHT22;15148;48.972;12.794;2023-08-31T12:07:40;16.70;99.90
27759;DHT22;15148;48.972;12.794;2023-08-31T12:12:45;16.40;99.90
27759;DHT22;15148;48.972;12.794;2023-08-31T12:17:48;16.30;99.90
27759;DHT22;15148;48.972;12.794;2023-08-31T12:22:55;16.40;99.90
27759;DHT22;15148;48.972;12.794;2023-08-31T12:27:57;16.90;99.90
27759;DHT22;15148;48.972;12.794;2023-08-31T12:32:59;17.00;99.90
27759;DHT22;15148;48.972;12.794;2023-08-31T12:38:01;17.10;99.90
27759;DHT22;15148;48.972;12.794;2023-08-31T12:43:04;17.60;99.90
27759;DHT22;15148;48.972;12.794;2023-08-31T12:48:06;18.00;99.90
27759;DHT22;15148;48.972;12.794;2023-08-31T12:53:10;18.30;99.90
27759;DHT22;15148;48.972;12.794;2023-08-31T12:58:13;18.40;99.90
27759;DHT22;15148;48.972;12.794;2023-08-31T13:03:16;18.60;99.90
27759;DHT22;15148;48.972;12.794;2023-08-31T13:08:18;18.50;99.90
27759;DHT22;15148;48.972;12.794;2023-08-31T13:13:21;18.60;99.90
27759;DHT22;15148;48.972;12.794;2023-08-31T13:18:23;19.00;99.90
27759;DHT22;15148;48.972;12.794;2023-08-31T13:23:25;19.10;99.90
27759;DHT22;15148;48.972;12.794;2023-08-31T13:28:27;18.90;99.90
27759;DHT22;15148;48.972;12.794;2023-08-31T13:33:31;19.00;99.90
27759;DHT22;15148;48.972;12.794;2023-08-31T13:38:33;19.00;99.90
27759;DHT22;15148;48.972;12.794;2023-08-31T13:43:35;18.80;99.90
27759;DHT22;15148;48.972;12.794;2023-08-31T13:48:37;18.80;99.90
27759;DHT22;15148;48.972;12.794;2023-08-31T13:53:42;18.80;99.90
27759;DHT22;15148;48.972;12.794;2023-08-31T13:58:48;18.50;99.90
27759;DHT22;15148;48.972;12.794;2023-08-31T14:03:51;18.20;99.90
27759;DHT22;15148;48.972;12.794;2023-08-31T14:08:53;18.00;99.90
27759;DHT22;15148;48.972;12.794;2023-08-31T14:14:02;18.20;99.90
27759;DHT22;15148;48.972;12.794;2023-08-31T14:19:05;18.30;99.90
27759;DHT22;15148;48.972;12.794;2023-08-31T14:24:08;18.30;99.90
27759;DHT22;15148;48.972;12.794;2023-08-31T14:29:09;18.30;99.90
27759;DHT22;15148;48.972;12.794;2023-08-31T14:34:11;18.20;99.90
27759;DHT22;15148;48.972;12.794;2023-08-31T14:39:15;18.10;99.90
27759;DHT22;15148;48.972;12.794;2023-08-31T14:44:16;17.80;99.90
27759;DHT22;15148;48.972;12.794;2023-08-31T14:49:21;17.60;99.90
27759;DHT22;15148;48.972;12.794;2023-08-31T14:54:25;17.60;99.90
27759;DHT22;15148;48.972;12.794;2023-08-31T14:59:27;17.70;99.90
27759;DHT22;15148;48.972;12.794;2023-08-31T15:04:29;17.70;99.90
27759;DHT22;15148;48.972;12.794;2023-08-31T15:09:31;17.70;99.90
27759;DHT22;15148;48.972;12.794;2023-08-31T15:14:33;17.60;99.90
27759;DHT22;15148;48.972;12.794;2023-08-31T15:19:35;17.50;99.90
27759;DHT22;15148;48.972;12.794;2023-08-31T15:24:37;17.50;99.90
27759;DHT22;15148;48.972;12.794;2023-08-31T15:29:42;17.50;99.90
27759;DHT22;15148;48.972;12.794;2023-08-31T15:34:45;17.50;99.90
27759;DHT22;15148;48.972;12.794;2023-08-31T15:39:51;17.40;99.90
27759;DHT22;15148;48.972;12.794;2023-08-31T15:44:53;17.30;99.90
27759;DHT22;15148;48.972;12.794;2023-08-31T15:49:57;17.10;99.90
27759;DHT22;15148;48.972;12.794;2023-08-31T15:55:01;16.80;99.90
27759;DHT22;15148;48.972;12.794;2023-08-31T16:00:05;16.70;99.90
27759;DHT22;15148;48.972;12.794;2023-08-31T16:05:08;16.60;99.90
27759;DHT22;15148;48.972;12.794;2023-08-31T16:10:10;16.50;99.90
27759;DHT22;15148;48.972;12.794;2023-08-31T16:15:12;16.40;99.90
27759;DHT22;15148;48.972;12.794;2023-08-31T16:20:14;16.30;99.90
27759;DHT22;15148;48.972;12.794;2023-08-31T16:25:16;16.30;99.90
27759;DHT22;15148;48.972;12.794;2023-08-31T16:30:21;16.20;99.90
27759;DHT22;15148;48.972;12.794;2023-08-31T16:35:22;16.20;99.90
27759;DHT22;15148;48.972;12.794;2023-08-31T16:40:24;16.20;99.90
27759;DHT22;15148;48.972;12.794;2023-08-31T16:45:26;16.00;99.90
27759;DHT22;15148;48.972;12.794;2023-08-31T16:50:30;15.80;99.90
27759;DHT22;15148;48.972;12.794;2023-08-31T16:55:32;15.60;99.90
27759;DHT22;15148;48.972;12.794;2023-08-31T17:00:35;15.40;99.90
27759;DHT22;15148;48.972;12.794;2023-08-31T17:05:37;15.20;99.90
27759;DHT22;15148;48.972;12.794;2023-08-31T17:10:39;15.00;99.90
27759;DHT22;15148;48.972;12.794;2023-08-31T17:15:41;14.80;99.90
27759;DHT22;15148;48.972;12.794;2023-08-31T17:20:43;14.60;99.90
27759;DHT22;15148;48.972;12.794;2023-08-31T17:25:45;14.40;99.90
27759;DHT22;15148;48.972;12.794;2023-08-31T17:30:47;14.10;99.90
27759;DHT22;15148;48.972;12.794;2023-08-31T17:35:50;14.10;99.90
27759;DHT22;15148;48.972;12.794;2023-08-31T17:40:53;13.90;99.90
27759;DHT22;15148;48.972;12.794;2023-08-31T17:45:55;13.80;99.90
27759;DHT22;15148;48.972;12.794;2023-08-31T17:50:58;13.60;99.90
27759;DHT22;15148;48.972;12.794;2023-08-31T17:56:00;13.50;99.90
27759;DHT22;15148;48.972;12.794;2023-08-31T18:01:02;13.40;99.90
27759;DHT22;15148;48.972;12.794;2023-08-31T18:06:06;13.40;99.90
27759;DHT22;15148;48.972;12.794;2023-08-31T18:11:08;13.40;99.90
27759;DHT22;15148;48.972;12.794;2023-08-31T18:16:10;13.30;99.90
27759;DHT22;15148;48.972;12.794;2023-08-31T18:21:13;13.30;99.90
27759;DHT22;15148;48.972;12.794;2023-08-31T18:26:15;13.30;99.90
27759;DHT22;15148;48.972;12.794;2023-08-31T18:31:17;13.30;99.90
27759;DHT22;15148;48.972;12.794;2023-08-31T18:36:19;13.30;99.90
27759;DHT22;15148;48.972;12.794;2023-08-31T18:41:21;13.30;99.90
27759;DHT22;15148;48.972;12.794;2023-08-31T18:46:23;13.40;99.90
27759;DHT22;15148;48.972;12.794;2023-08-31T18:51:27;13.30;99.90
27759;DHT22;15148;48.972;12.794;2023-08-31T18:56:31;13.30;99.90
27759;DHT22;15148;48.972;12.794;2023-08-31T19:01:36;13.20;99.90
27759;DHT22;15148;48.972;12.794;2023-08-31T19:06:38;13.10;99.90
27759;DHT22;15148;48.972;12.794;2023-08-31T19:11:41;13.00;99.90
27759;DHT22;15148;48.972;12.794;2023-08-31T19:16:43;13.00;99.90
27759;DHT22;15148;48.972;12.794;2023-08-31T19:21:45;13.00;99.90
27759;DHT22;15148;48.972;12.794;2023-08-31T19:26:47;13.00;99.90
27759;DHT22;15148;48.972;12.794;2023-08-31T19:31:49;13.00;99.90
27759;DHT22;15148;48.972;12.794;2023-08-31T19:36:51;13.00;99.90
27759;DHT22;15148;48.972;12.794;2023-08-31T19:41:58;13.00;99.90
27759;DHT22;15148;48.972;12.794;2023-08-31T19:47:00;13.00;99.90
27759;DHT22;15148;48.972;12.794;2023-08-31T19:52:15;13.10;99.90
27759;DHT22;15148;48.972;12.794;2023-08-31T19:57:17;13.10;99.90
27759;DHT22;15148;48.972;12.794;2023-08-31T20:02:19;13.10;99.90
27759;DHT22;15148;48.972;12.794;2023-08-31T20:07:21;13.10;99.90
27759;DHT22;15148;48.972;12.794;2023-08-31T20:12:24;13.10;99.90
27759;DHT22;15148;48.972;12.794;2023-08-31T20:17:26;13.00;99.90
27759;DHT22;15148;48.972;12.794;2023-08-31T20:22:29;13.00;99.90
27759;DHT22;15148;48.972;12.794;2023-08-31T20:27:34;13.00;99.90
27759;DHT22;15148;48.972;12.794;2023-08-31T20:32:37;12.90;99.90
27759;DHT22;15148;48.972;12.794;2023-08-31T20:37:39;12.90;99.90
27759;DHT22;15148;48.972;12.794;2023-08-31T20:42:42;12.90;99.90
27759;DHT22;15148;48.972;12.794;2023-08-31T20:47:48;12.80;99.90
27759;DHT22;15148;48.972;12.794;2023-08-31T20:52:55;12.90;99.90
27759;DHT22;15148;48.972;12.794;2023-08-31T20:57:57;12.90;99.90
27759;DHT22;15148;48.972;12.794;2023-08-31T21:02:59;12.80;99.90
27759;DHT22;15148;48.972;12.794;2023-08-31T21:08:01;12.80;99.90
27759;DHT22;15148;48.972;12.794;2023-08-31T21:13:03;12.70;99.90
27759;DHT22;15148;48.972;12.794;2023-08-31T21:18:06;12.60;99.90
27759;DHT22;15148;48.972;12.794;2023-08-31T21:23:08;12.60;99.90
27759;DHT22;15148;48.972;12.794;2023-08-31T21:28:13;12.50;99.90
27759;DHT22;15148;48.972;12.794;2023-08-31T21:33:16;12.50;99.90
27759;DHT22;15148;48.972;12.794;2023-08-31T21:38:18;12.50;99.90
27759;DHT22;15148;48.972;12.794;2023-08-31T21:43:20;12.50;99.90
27759;DHT22;15148;48.972;12.794;2023-08-31T21:48:22;12.60;99.90
27759;DHT22;15148;48.972;12.794;2023-08-31T21:53:25;12.70;99.90
27759;DHT22;15148;48.972;12.794;2023-08-31T21:58:26;12.70;99.90
27759;DHT22;15148;48.972;12.794;2023-08-31T22:03:30;12.70;99.90
27759;DHT22;15148;48.972;12.794;2023-08-31T22:08:32;12.70;99.90
27759;DHT22;15148;48.972;12.794;2023-08-31T22:13:34;12.70;99.90
27759;DHT22;15148;48.972;12.794;2023-08-31T22:18:36;12.80;99.90
27759;DHT22;15148;48.972;12.794;2023-08-31T22:23:38;12.80;99.90
27759;DHT22;15148;48.972;12.794;2023-08-31T22:28:41;12.80;99.90
27759;DHT22;15148;48.972;12.794;2023-08-31T22:33:42;12.80;99.90
27759;DHT22;15148;48.972;12.794;2023-08-31T22:38:46;12.70;99.90
27759;DHT22;15148;48.972;12.794;2023-08-31T22:43:50;12.80;99.90
27759;DHT22;15148;48.972;12.794;2023-08-31T22:48:52;12.80;99.90
27759;DHT22;15148;48.972;12.794;2023-08-31T22:53:55;12.90;99.90
27759;DHT22;15148;48.972;12.794;2023-08-31T22:58:56;13.00;99.90
27759;DHT22;15148;48.972;12.794;2023-08-31T23:03:58;13.00;99.90
27759;DHT22;15148;48.972;12.794;2023-08-31T23:09:00;13.00;99.90
27759;DHT22;15148;48.972;12.794;2023-08-31T23:14:02;13.00;99.90
27759;DHT22;15148;48.972;12.794;2023-08-31T23:19:04;13.00;99.90
27759;DHT22;15148;48.972;12.794;2023-08-31T23:24:07;13.00;99.90
27759;DHT22;15148;48.972;12.794;2023-08-31T23:29:09;13.00;99.90
27759;DHT22;15148;48.972;12.794;2023-08-31T23:34:13;12.90;99.90
27759;DHT22;15148;48.972;12.794;2023-08-31T23:39:15;12.90;99.90
27759;DHT22;15148;48.972;12.794;2023-08-31T23:44:17;12.90;99.90
27759;DHT22;15148;48.972;12.794;2023-08-31T23:49:18;12.90;99.90
27759;DHT22;15148;48.972;12.794;2023-08-31T23:54:21;13.00;99.90
27759;DHT22;15148;48.972;12.794;2023-08-31T23:59:23;13.00;99.90
